Time;durP1;ratioP1;P1;durP2;ratioP2;P2;SDS_P1;SDS_P2;PMS_P1;PMS_P2;Temp;Humidity;BMP_temperature;BMP_pressure;BME280_temperature;BME280_humidity;BME280_pressure;Samples;Min_cycle;Max_cycle;Signal;HPM_P1;HPM_P2
2024/01/16 00:01:18;;;;;;;3.85;1.30;;;;;;;;;;5067478;28;20069;-88
2024/01/16 00:03:48;;;;;;;7.55;1.23;;;;;;;;;;5073611;28;20055;-87
2024/01/16 00:06:20;;;;;;;3.67;1.30;;;;;;;;;;5057233;28;20056;-87
2024/01/16 00:08:50;;;;;;;5.22;1.48;;;;;;;;;;5074140;28;20067;-87
2024/01/16 00:11:20;;;;;;;5.47;1.00;;;;;;;;;;5073736;28;20056;-86
2024/01/16 00:13:49;;;;;;;4.13;1.45;;;;;;;;;;5073057;28;20048;-86
2024/01/16 00:16:21;;;;;;;6.07;0.95;;;;;;;;;;5057253;28;20063;-87
2024/01/16 00:18:51;;;;;;;3.55;1.10;;;;;;;;;;5056798;28;20068;-88
2024/01/16 00:21:21;;;;;;;3.00;1.10;;;;;;;;;;5073368;28;20054;-88
2024/01/16 00:23:52;;;;;;;3.20;1.02;;;;;;;;;;5073383;28;20048;-87
2024/01/16 00:26:23;;;;;;;3.22;1.02;;;;;;;;;;5073349;28;20059;-88
2024/01/16 00:28:53;;;;;;;4.93;1.17;;;;;;;;;;5057138;28;20502;-86
2024/01/16 00:31:25;;;;;;;4.60;1.20;;;;;;;;;;5084196;28;20044;-87
2024/01/16 00:33:55;;;;;;;5.80;1.30;;;;;;;;;;5093277;28;20054;-88
2024/01/16 00:36:26;;;;;;;6.10;1.80;;;;;;;;;;5076406;28;20051;-87
2024/01/16 00:38:57;;;;;;;5.80;1.58;;;;;;;;;;5092990;28;20044;-87
2024/01/16 00:41:28;;;;;;;6.43;1.30;;;;;;;;;;5093824;28;20050;-87
2024/01/16 00:43:58;;;;;;;4.20;1.60;;;;;;;;;;5076314;28;20055;-87
2024/01/16 00:46:28;;;;;;;4.13;2.03;;;;;;;;;;5077227;28;20048;-89
2024/01/16 00:48:58;;;;;;;5.85;1.77;;;;;;;;;;5076979;28;20044;-87
2024/01/16 00:51:28;;;;;;;3.63;1.80;;;;;;;;;;5076200;28;20059;-88
2024/01/16 00:53:59;;;;;;;5.57;1.60;;;;;;;;;;5092680;28;20051;-88
2024/01/16 00:56:32;;;;;;;5.40;1.50;;;;;;;;;;5076164;28;20051;-86
2024/01/16 00:59:03;;;;;;;3.25;1.40;;;;;;;;;;5092934;28;20039;-87
2024/01/16 01:01:33;;;;;;;5.57;1.75;;;;;;;;;;5096330;28;20047;-88
2024/01/16 01:04:05;;;;;;;7.57;1.40;;;;;;;;;;5056350;28;20059;-88
2024/01/16 01:06:36;;;;;;;6.93;1.75;;;;;;;;;;5056463;28;20048;-87
2024/01/16 01:09:06;;;;;;;8.98;1.50;;;;;;;;;;5072746;28;20056;-87
2024/01/16 01:11:38;;;;;;;6.95;1.52;;;;;;;;;;5055862;28;20048;-87
2024/01/16 01:14:10;;;;;;;6.35;1.65;;;;;;;;;;5072910;28;20052;-88
2024/01/16 01:16:40;;;;;;;4.72;1.77;;;;;;;;;;5073247;28;20079;-88
2024/01/16 01:19:10;;;;;;;5.80;1.63;;;;;;;;;;5072967;28;20048;-88
2024/01/16 01:21:40;;;;;;;2.55;1.30;;;;;;;;;;5056074;28;20051;-88
2024/01/16 01:24:10;;;;;;;4.28;1.33;;;;;;;;;;5072773;28;20067;-87
2024/01/16 01:26:44;;;;;;;4.20;1.25;;;;;;;;;;5062825;28;20047;-90
2024/01/16 01:29:17;;;;;;;2.67;1.23;;;;;;;;;;5079476;28;20517;-91
2024/01/16 01:31:48;;;;;;;2.80;1.50;;;;;;;;;;5059903;28;20809;-89
2024/01/16 01:34:18;;;;;;;4.40;1.42;;;;;;;;;;5067643;28;20048;-89
2024/01/16 01:36:49;;;;;;;3.00;1.13;;;;;;;;;;5085561;28;20064;-88
2024/01/16 01:39:20;;;;;;;7.03;1.60;;;;;;;;;;5064168;28;20521;-89
2024/01/16 01:41:50;;;;;;;6.15;1.63;;;;;;;;;;5083243;28;20056;-89
2024/01/16 01:44:20;;;;;;;4.93;1.52;;;;;;;;;;5104431;28;20131;-89
2024/01/16 01:46:50;;;;;;;7.85;2.05;;;;;;;;;;5073403;28;20058;-87
2024/01/16 01:49:20;;;;;;;7.18;1.40;;;;;;;;;;5080186;28;20371;-90
2024/01/16 01:51:52;;;;;;;4.72;1.40;;;;;;;;;;5080149;28;20066;-90
2024/01/16 01:54:24;;;;;;;4.18;2.00;;;;;;;;;;5096521;28;20052;-88
2024/01/16 01:56:54;;;;;;;4.38;1.90;;;;;;;;;;5080260;28;20056;-88
2024/01/16 01:59:25;;;;;;;6.07;1.52;;;;;;;;;;5096128;28;20051;-88
2024/01/16 02:01:56;;;;;;;4.70;1.63;;;;;;;;;;5079458;28;20413;-88
2024/01/16 02:04:28;;;;;;;3.92;1.55;;;;;;;;;;5095738;28;20050;-88
2024/01/16 02:06:58;;;;;;;6.57;1.63;;;;;;;;;;5078779;28;20064;-87
2024/01/16 02:09:33;;;;;;;5.88;1.92;;;;;;;;;;5062026;28;20048;-87
2024/01/16 02:12:13;;;;;;;9.75;1.63;;;;;;;;;;5095868;28;20060;-87
2024/01/16 02:14:46;;;;;;;7.28;1.70;;;;;;;;;;5077156;28;20054;-85
2024/01/16 02:17:16;;;;;;;3.50;1.90;;;;;;;;;;5077346;28;20055;-87
2024/01/16 02:19:46;;;;;;;9.18;1.77;;;;;;;;;;5079156;28;20401;-86
2024/01/16 02:22:23;;;;;;;3.58;1.48;;;;;;;;;;5097270;28;20363;-87
2024/01/16 02:24:54;;;;;;;8.88;1.63;;;;;;;;;;5095914;28;20479;-87
2024/01/16 02:27:24;;;;;;;4.35;2.05;;;;;;;;;;5077892;28;20048;-87
2024/01/16 02:29:54;;;;;;;6.35;2.00;;;;;;;;;;5078597;28;20055;-88
2024/01/16 02:32:24;;;;;;;6.03;1.80;;;;;;;;;;5062068;28;20056;-87
2024/01/16 02:34:54;;;;;;;6.65;2.45;;;;;;;;;;5077173;28;20044;-87
2024/01/16 02:37:26;;;;;;;7.13;1.83;;;;;;;;;;5074149;28;20044;-87
2024/01/16 02:39:56;;;;;;;3.72;1.40;;;;;;;;;;5060356;28;20059;-86
2024/01/16 02:42:26;;;;;;;5.88;1.60;;;;;;;;;;5068887;28;20494;-87
2024/01/16 02:44:56;;;;;;;5.10;1.73;;;;;;;;;;5060679;28;20418;-87
2024/01/16 02:47:27;;;;;;;6.35;2.20;;;;;;;;;;5076951;28;20051;-86
2024/01/16 02:49:59;;;;;;;7.70;1.63;;;;;;;;;;5076797;28;20048;-85
2024/01/16 02:52:29;;;;;;;7.70;1.63;;;;;;;;;;5074983;28;20051;-88
2024/01/16 02:55:02;;;;;;;5.03;1.65;;;;;;;;;;5076295;28;20048;-88
2024/01/16 02:57:32;;;;;;;8.68;2.15;;;;;;;;;;5060044;28;20060;-88
2024/01/16 03:00:07;;;;;;;4.88;1.73;;;;;;;;;;5060779;28;20040;-88
2024/01/16 03:02:38;;;;;;;6.25;1.95;;;;;;;;;;5076336;28;20044;-88
2024/01/16 03:05:11;;;;;;;4.32;1.83;;;;;;;;;;5059052;28;20048;-84
2024/01/16 03:07:41;;;;;;;6.38;1.75;;;;;;;;;;5075686;28;20549;-87
2024/01/16 03:10:13;;;;;;;5.10;1.60;;;;;;;;;;5075398;28;20044;-87
2024/01/16 03:12:43;;;;;;;4.72;2.13;;;;;;;;;;5077747;28;20040;-87
2024/01/16 03:15:12;;;;;;;3.63;1.77;;;;;;;;;;5094717;28;20470;-86
2024/01/16 03:17:42;;;;;;;4.10;1.90;;;;;;;;;;5093542;28;20032;-86
2024/01/16 03:20:13;;;;;;;7.78;2.00;;;;;;;;;;5076161;28;20056;-88
2024/01/16 03:22:44;;;;;;;5.10;1.60;;;;;;;;;;5078411;28;20055;-87
2024/01/16 03:25:16;;;;;;;5.60;1.70;;;;;;;;;;5076722;28;20055;-87
2024/01/16 03:27:46;;;;;;;;;;;;;;;;;;5077390;28;20051;-88
2024/01/16 03:30:15;;;;;;;4.10;1.42;;;;;;;;;;5060278;28;19919;-88
2024/01/16 03:32:45;;;;;;;3.97;1.85;;;;;;;;;;5060133;28;20052;-87
2024/01/16 03:35:16;;;;;;;6.43;1.92;;;;;;;;;;5076381;28;20395;-86
2024/01/16 03:37:47;;;;;;;6.07;2.10;;;;;;;;;;5077344;28;20048;-87
2024/01/16 03:40:16;;;;;;;5.43;2.70;;;;;;;;;;5076552;28;20052;-87
2024/01/16 03:42:48;;;;;;;7.07;2.13;;;;;;;;;;5077957;28;20467;-87
2024/01/16 03:45:18;;;;;;;8.18;2.35;;;;;;;;;;5060178;28;20047;-87
2024/01/16 03:47:50;;;;;;;6.75;1.90;;;;;;;;;;5076367;28;20044;-87
2024/01/16 03:50:21;;;;;;;7.63;2.28;;;;;;;;;;5076695;28;20394;-87
2024/01/16 03:52:52;;;;;;;11.63;2.25;;;;;;;;;;5076368;28;20060;-87
2024/01/16 03:55:22;;;;;;;7.55;2.15;;;;;;;;;;5060008;28;20060;-89
2024/01/16 03:57:53;;;;;;;7.60;2.83;;;;;;;;;;5076193;28;20059;-87
2024/01/16 04:00:24;;;;;;;8.30;1.73;;;;;;;;;;5076309;28;20078;-79
2024/01/16 04:02:53;;;;;;;7.07;2.10;;;;;;;;;;5078035;28;20048;-80
2024/01/16 04:05:24;;;;;;;5.80;2.03;;;;;;;;;;5097710;28;20051;-80
2024/01/16 04:07:54;;;;;;;9.27;2.17;;;;;;;;;;5096466;28;20075;-80
2024/01/16 04:10:24;;;;;;;7.13;1.73;;;;;;;;;;5076637;28;20044;-80
2024/01/16 04:12:54;;;;;;;5.13;2.00;;;;;;;;;;5076617;28;20422;-79
2024/01/16 04:15:24;;;;;;;6.40;2.33;;;;;;;;;;5075633;28;20060;-80
2024/01/16 04:17:53;;;;;;;6.15;1.70;;;;;;;;;;5077450;28;20052;-80
2024/01/16 04:20:23;;;;;;;10.50;2.33;;;;;;;;;;5077087;28;20052;-80
2024/01/16 04:22:53;;;;;;;6.15;1.98;;;;;;;;;;5095159;28;20040;-80
2024/01/16 04:25:23;;;;;;;4.15;1.90;;;;;;;;;;5078821;28;20053;-80
2024/01/16 04:27:53;;;;;;;7.78;2.35;;;;;;;;;;5077518;28;20047;-80
2024/01/16 04:30:23;;;;;;;7.25;2.17;;;;;;;;;;5077624;28;20052;-79
2024/01/16 04:32:53;;;;;;;6.97;2.60;;;;;;;;;;5095568;28;20066;-79
2024/01/16 04:35:23;;;;;;;9.50;2.25;;;;;;;;;;5078077;28;20063;-80
2024/01/16 04:37:52;;;;;;;9.93;2.42;;;;;;;;;;5097138;28;20505;-80
2024/01/16 04:40:23;;;;;;;8.65;2.10;;;;;;;;;;5095374;28;20059;-79
2024/01/16 04:42:52;;;;;;;9.85;2.40;;;;;;;;;;5079180;28;20067;-81
2024/01/16 04:45:23;;;;;;;10.80;3.00;;;;;;;;;;5087112;28;20434;-79
2024/01/16 04:47:52;;;;;;;7.63;2.17;;;;;;;;;;5095740;28;20052;-81
2024/01/16 04:50:23;;;;;;;5.72;2.20;;;;;;;;;;5096750;28;20047;-79
2024/01/16 04:52:54;;;;;;;5.93;2.10;;;;;;;;;;5089837;28;20056;-80
2024/01/16 04:55:23;;;;;;;17.85;3.03;;;;;;;;;;5102328;28;20036;-79
2024/01/16 04:57:55;;;;;;;8.75;2.55;;;;;;;;;;5091152;28;20047;-79
2024/01/16 05:00:26;;;;;;;8.68;2.58;;;;;;;;;;5091358;28;20040;-81
2024/01/16 05:02:56;;;;;;;8.07;2.38;;;;;;;;;;5090746;28;20059;-79
2024/01/16 05:05:27;;;;;;;7.28;2.03;;;;;;;;;;5090931;28;20047;-79
2024/01/16 05:08:00;;;;;;;10.65;2.85;;;;;;;;;;5083312;28;20040;-80
2024/01/16 05:10:31;;;;;;;7.32;3.40;;;;;;;;;;5070282;28;20059;-79
2024/01/16 05:13:01;;;;;;;11.65;2.42;;;;;;;;;;5070853;28;20044;-80
2024/01/16 05:15:31;;;;;;;6.32;2.30;;;;;;;;;;5054724;28;20396;-79
2024/01/16 05:18:01;;;;;;;6.72;2.20;;;;;;;;;;5073008;28;20045;-80
2024/01/16 05:20:31;;;;;;;6.93;2.17;;;;;;;;;;5071952;28;20048;-80
2024/01/16 05:23:01;;;;;;;7.50;2.45;;;;;;;;;;5071370;28;20055;-80
2024/01/16 05:25:31;;;;;;;10.50;2.60;;;;;;;;;;5072338;28;20049;-79
2024/01/16 05:28:01;;;;;;;7.90;2.55;;;;;;;;;;5054265;28;20052;-80
2024/01/16 05:30:31;;;;;;;9.30;2.47;;;;;;;;;;5071445;28;20049;-79
2024/01/16 05:33:00;;;;;;;9.20;2.47;;;;;;;;;;5072367;28;20045;-79
2024/01/16 05:35:30;;;;;;;9.10;2.35;;;;;;;;;;5072401;28;20056;-79
2024/01/16 05:38:04;;;;;;;9.50;2.67;;;;;;;;;;5073405;28;20055;-80
2024/01/16 05:40:35;;;;;;;8.30;2.45;;;;;;;;;;5073005;28;20048;-79
2024/01/16 05:43:05;;;;;;;6.65;2.65;;;;;;;;;;5073120;28;20049;-80
2024/01/16 05:45:35;;;;;;;6.85;2.15;;;;;;;;;;5071247;28;20410;-79
2024/01/16 05:48:08;;;;;;;8.48;2.50;;;;;;;;;;5073445;28;20048;-79
2024/01/16 05:50:39;;;;;;;12.45;3.20;;;;;;;;;;5073041;28;20040;-79
2024/01/16 05:53:09;;;;;;;5.95;2.28;;;;;;;;;;5072774;28;20051;-79
2024/01/16 05:55:39;;;;;;;8.55;2.50;;;;;;;;;;5054206;28;20055;-81
2024/01/16 05:58:09;;;;;;;6.30;2.45;;;;;;;;;;5072941;28;20052;-79
2024/01/16 06:00:43;;;;;;;10.20;2.30;;;;;;;;;;5072941;28;20047;-79
2024/01/16 06:03:12;;;;;;;11.52;2.78;;;;;;;;;;5073390;28;20056;-80
2024/01/16 06:05:42;;;;;;;7.25;2.05;;;;;;;;;;5072656;28;20041;-80
2024/01/16 06:08:12;;;;;;;8.05;2.75;;;;;;;;;;5072735;28;20060;-79
2024/01/16 06:10:42;;;;;;;8.93;2.13;;;;;;;;;;5054675;28;20387;-79
2024/01/16 06:13:13;;;;;;;9.00;2.70;;;;;;;;;;5053933;28;20053;-79
2024/01/16 06:15:43;;;;;;;6.38;2.50;;;;;;;;;;5073313;28;20052;-80
2024/01/16 06:18:13;;;;;;;6.00;2.03;;;;;;;;;;5072387;28;20040;-79
2024/01/16 06:20:43;;;;;;;10.18;2.38;;;;;;;;;;5071221;28;20048;-79
2024/01/16 06:23:13;;;;;;;7.20;2.08;;;;;;;;;;5072231;28;20044;-80
2024/01/16 06:25:44;;;;;;;15.90;3.42;;;;;;;;;;5072106;28;20051;-79
2024/01/16 06:28:15;;;;;;;7.85;2.92;;;;;;;;;;5071961;28;20375;-80
2024/01/16 06:30:45;;;;;;;9.30;2.70;;;;;;;;;;5073522;28;20502;-79
2024/01/16 06:33:15;;;;;;;9.85;2.60;;;;;;;;;;5076094;28;20036;-81
2024/01/16 06:35:45;;;;;;;7.95;2.65;;;;;;;;;;5075915;28;20047;-79
2024/01/16 06:38:17;;;;;;;8.10;2.70;;;;;;;;;;5076049;28;20044;-79
2024/01/16 06:40:47;;;;;;;13.25;2.67;;;;;;;;;;5075992;28;20049;-81
2024/01/16 06:43:18;;;;;;;7.53;2.83;;;;;;;;;;5057613;28;20067;-80
2024/01/16 06:45:49;;;;;;;9.25;2.67;;;;;;;;;;5058426;28;20041;-78
2024/01/16 06:48:18;;;;;;;6.72;2.40;;;;;;;;;;5075709;28;20049;-80
2024/01/16 06:50:48;;;;;;;7.18;3.08;;;;;;;;;;5076155;28;20051;-79
2024/01/16 06:53:21;;;;;;;7.90;2.90;;;;;;;;;;5073309;28;20494;-79
2024/01/16 06:55:51;;;;;;;7.75;2.80;;;;;;;;;;5076024;28;20036;-79
2024/01/16 06:58:21;;;;;;;7.75;2.88;;;;;;;;;;5074653;28;20426;-80
2024/01/16 07:00:51;;;;;;;8.43;2.58;;;;;;;;;;5057392;28;20409;-79
2024/01/16 07:03:21;;;;;;;8.60;2.30;;;;;;;;;;5076062;28;20040;-80
2024/01/16 07:05:50;;;;;;;13.82;2.50;;;;;;;;;;5075776;28;20051;-79
2024/01/16 07:08:20;;;;;;;5.82;2.17;;;;;;;;;;5074191;28;20138;-80
2024/01/16 07:10:51;;;;;;;7.93;2.30;;;;;;;;;;5073955;28;20059;-80
2024/01/16 07:13:21;;;;;;;5.20;2.38;;;;;;;;;;5057517;28;20514;-80
2024/01/16 07:15:51;;;;;;;7.63;2.60;;;;;;;;;;5075010;28;20391;-80
2024/01/16 07:18:21;;;;;;;6.85;2.53;;;;;;;;;;5057070;28;20475;-80
2024/01/16 07:20:51;;;;;;;7.30;2.50;;;;;;;;;;5075223;28;20129;-80
2024/01/16 07:23:21;;;;;;;6.45;2.53;;;;;;;;;;5075067;28;20044;-79
2024/01/16 07:25:51;;;;;;;7.45;2.40;;;;;;;;;;5074053;28;20052;-80
2024/01/16 07:28:22;;;;;;;12.20;2.83;;;;;;;;;;5075380;28;20387;-79
2024/01/16 07:30:54;;;;;;;5.97;2.75;;;;;;;;;;5075013;28;20044;-79
2024/01/16 07:33:26;;;;;;;11.00;2.78;;;;;;;;;;5075178;28;20041;-79
2024/01/16 07:35:58;;;;;;;10.80;3.17;;;;;;;;;;5073021;28;20052;-80
2024/01/16 07:38:29;;;;;;;10.77;2.75;;;;;;;;;;5072732;28;20052;-79
2024/01/16 07:40:59;;;;;;;10.35;2.80;;;;;;;;;;5074637;28;20041;-80
2024/01/16 07:43:30;;;;;;;11.52;3.53;;;;;;;;;;5055947;28;20048;-80
2024/01/16 07:46:01;;;;;;;13.10;2.63;;;;;;;;;;5081442;28;20044;-79
2024/01/16 07:48:31;;;;;;;11.38;3.25;;;;;;;;;;5076320;28;20048;-79
2024/01/16 07:51:01;;;;;;;11.40;2.72;;;;;;;;;;5095299;28;20080;-79
2024/01/16 07:53:31;;;;;;;6.30;2.72;;;;;;;;;;5094865;28;20048;-79
2024/01/16 07:56:02;;;;;;;7.07;2.70;;;;;;;;;;5075806;28;20055;-80
2024/01/16 07:58:33;;;;;;;13.18;2.72;;;;;;;;;;5076265;28;20059;-79
2024/01/16 08:01:03;;;;;;;12.57;2.83;;;;;;;;;;5076894;28;20047;-79
2024/01/16 08:03:33;;;;;;;6.97;2.72;;;;;;;;;;5094562;28;20497;-80
2024/01/16 08:06:03;;;;;;;9.35;3.10;;;;;;;;;;5095050;28;20051;-81
2024/01/16 08:08:33;;;;;;;5.95;2.88;;;;;;;;;;5094777;28;20044;-79
2024/01/16 08:11:03;;;;;;;15.98;2.58;;;;;;;;;;5076781;28;20466;-79
2024/01/16 08:13:34;;;;;;;7.18;2.83;;;;;;;;;;5094183;28;20475;-79
2024/01/16 08:16:05;;;;;;;6.78;2.45;;;;;;;;;;5094600;28;20044;-79
2024/01/16 08:18:39;;;;;;;8.82;3.63;;;;;;;;;;5094773;28;20036;-79
2024/01/16 08:21:09;;;;;;;12.55;3.63;;;;;;;;;;5094193;28;20048;-79
2024/01/16 08:23:40;;;;;;;7.05;2.63;;;;;;;;;;5076108;28;20067;-80
2024/01/16 08:26:11;;;;;;;14.27;4.18;;;;;;;;;;5058785;28;20052;-79
2024/01/16 08:28:42;;;;;;;6.45;2.92;;;;;;;;;;5076250;28;20055;-79
2024/01/16 08:31:12;;;;;;;8.38;3.05;;;;;;;;;;5094596;28;20493;-80
2024/01/16 08:33:42;;;;;;;13.38;2.80;;;;;;;;;;5093916;28;20040;-81
2024/01/16 08:36:16;;;;;;;14.05;3.17;;;;;;;;;;5077213;28;20470;-80
2024/01/16 08:38:47;;;;;;;7.43;2.90;;;;;;;;;;5076866;28;20059;-78
2024/01/16 08:41:17;;;;;;;9.55;2.92;;;;;;;;;;5093743;28;20043;-80
2024/01/16 08:43:48;;;;;;;7.60;2.63;;;;;;;;;;5093545;28;20474;-80
2024/01/16 08:46:20;;;;;;;9.57;2.78;;;;;;;;;;5093287;28;20052;-80
2024/01/16 08:48:51;;;;;;;4.28;2.50;;;;;;;;;;5075988;28;20055;-79
2024/01/16 08:51:21;;;;;;;15.05;2.83;;;;;;;;;;5076609;28;20043;-79
2024/01/16 08:53:51;;;;;;;6.72;2.60;;;;;;;;;;5093133;28;20051;-79
2024/01/16 08:56:21;;;;;;;12.07;3.72;;;;;;;;;;5094229;28;20052;-79
2024/01/16 08:58:52;;;;;;;6.97;2.72;;;;;;;;;;5093449;28;20044;-81
2024/01/16 09:01:23;;;;;;;7.45;2.75;;;;;;;;;;5075783;28;20475;-79
2024/01/16 09:03:53;;;;;;;11.13;2.88;;;;;;;;;;5093775;28;20052;-79
2024/01/16 09:06:22;;;;;;;6.75;2.70;;;;;;;;;;5076211;28;20059;-79
2024/01/16 09:08:52;;;;;;;8.20;2.78;;;;;;;;;;5093495;28;20063;-81
2024/01/16 09:11:23;;;;;;;6.68;2.60;;;;;;;;;;5094008;28;20398;-80
2024/01/16 09:13:53;;;;;;;9.30;2.60;;;;;;;;;;5093350;28;20055;-81
2024/01/16 09:16:23;;;;;;;10.65;3.13;;;;;;;;;;5093255;28;20478;-79
2024/01/16 09:18:54;;;;;;;7.60;3.10;;;;;;;;;;5076039;28;20055;-79
2024/01/16 09:21:25;;;;;;;7.55;2.85;;;;;;;;;;5075025;28;20055;-79
2024/01/16 09:23:55;;;;;;;10.05;2.97;;;;;;;;;;5093539;28;20048;-80
2024/01/16 09:26:25;;;;;;;8.52;2.35;;;;;;;;;;5093217;28;20052;-79
2024/01/16 09:28:55;;;;;;;5.53;2.08;;;;;;;;;;5093605;28;20051;-79
2024/01/16 09:31:24;;;;;;;8.18;2.60;;;;;;;;;;5095494;28;20046;-80
2024/01/16 09:33:55;;;;;;;8.15;2.58;;;;;;;;;;5100162;28;20047;-80
2024/01/16 09:36:24;;;;;;;6.45;2.20;;;;;;;;;;5066084;28;20055;-79
2024/01/16 09:38:54;;;;;;;5.95;1.88;;;;;;;;;;5108236;28;20044;-79
2024/01/16 09:41:26;;;;;;;5.78;2.00;;;;;;;;;;5074951;28;20055;-79
2024/01/16 09:43:57;;;;;;;5.65;2.13;;;;;;;;;;5075380;28;20063;-78
2024/01/16 09:46:31;;;;;;;8.23;2.22;;;;;;;;;;5094874;28;20386;-79
2024/01/16 09:49:04;;;;;;;;;;;;;;;;;;5101553;28;20032;-79
2024/01/16 09:51:34;;;;;;;8.73;1.80;;;;;;;;;;5099326;28;19934;-78
2024/01/16 09:54:08;;;;;;;5.15;1.63;;;;;;;;;;5108790;28;20043;-79
2024/01/16 09:56:43;;;;;;;11.65;2.30;;;;;;;;;;5092390;28;20390;-79
2024/01/16 09:59:18;;;;;;;6.22;2.22;;;;;;;;;;5083485;28;20401;-78
2024/01/16 10:01:56;;;;;;;6.35;1.90;;;;;;;;;;5098111;28;20044;-78
2024/01/16 10:04:27;;;;;;;7.75;2.30;;;;;;;;;;5081344;28;20051;-79
2024/01/16 10:07:00;;;;;;;6.15;1.90;;;;;;;;;;5088638;28;20531;-79
2024/01/16 10:09:30;;;;;;;11.43;1.95;;;;;;;;;;5107058;28;20059;-79
2024/01/16 10:12:00;;;;;;;6.60;1.92;;;;;;;;;;5094892;28;20051;-78
2024/01/16 10:14:30;;;;;;;10.05;2.17;;;;;;;;;;5091824;28;20048;-80
2024/01/16 10:17:15;;;;;;;7.28;2.80;;;;;;;;;;5094341;28;20035;-79
2024/01/16 10:19:56;;;;;;;5.57;1.77;;;;;;;;;;5086724;28;20052;-78
2024/01/16 10:22:30;;;;;;;3.47;1.67;;;;;;;;;;5093909;28;20037;-79
2024/01/16 10:25:05;;;;;;;5.88;1.70;;;;;;;;;;5075383;28;20075;-80
2024/01/16 10:27:36;;;;;;;8.40;1.63;;;;;;;;;;5082405;28;20032;-81
2024/01/16 10:30:07;;;;;;;3.58;1.35;;;;;;;;;;5093278;28;20529;-82
2024/01/16 10:32:42;;;;;;;5.85;1.20;;;;;;;;;;5093149;28;20040;-80
2024/01/16 10:35:14;;;;;;;3.13;1.25;;;;;;;;;;5074807;28;20088;-80
2024/01/16 10:37:51;;;;;;;7.85;2.22;;;;;;;;;;5094495;28;20059;-79
2024/01/16 10:40:25;;;;;;;7.95;1.70;;;;;;;;;;5058461;28;20063;-81
2024/01/16 10:42:59;;;;;;;5.28;1.90;;;;;;;;;;5101830;28;20063;-80
2024/01/16 10:45:31;;;;;;;4.75;1.15;;;;;;;;;;5105991;28;20056;-79
2024/01/16 10:48:04;;;;;;;3.22;1.58;;;;;;;;;;5094258;28;20036;-79
2024/01/16 10:50:37;;;;;;;5.03;1.25;;;;;;;;;;5078899;28;20044;-80
2024/01/16 10:53:09;;;;;;;3.03;1.20;;;;;;;;;;5096388;28;20044;-80
2024/01/16 10:55:57;;;;;;;2.42;0.90;;;;;;;;;;5095790;28;20048;-80
2024/01/16 10:58:31;;;;;;;3.33;0.80;;;;;;;;;;5058025;28;20126;-79
2024/01/16 11:01:06;;;;;;;2.53;1.27;;;;;;;;;;5096563;28;20051;-80
2024/01/16 11:03:41;;;;;;;5.70;1.20;;;;;;;;;;5095485;28;20478;-81
2024/01/16 11:06:13;;;;;;;4.03;0.90;;;;;;;;;;5092468;28;20051;-80
2024/01/16 11:08:49;;;;;;;4.80;1.20;;;;;;;;;;5095151;28;20371;-80
2024/01/16 11:11:20;;;;;;;5.88;2.60;;;;;;;;;;5095826;28;20067;-82
2024/01/16 11:13:51;;;;;;;4.20;2.15;;;;;;;;;;5095084;28;20040;-81
2024/01/16 11:16:23;;;;;;;4.95;2.00;;;;;;;;;;5095247;28;20040;-79
2024/01/16 11:18:53;;;;;;;3.28;0.98;;;;;;;;;;5095215;28;20048;-82
2024/01/16 11:21:42;;;;;;;1.42;0.65;;;;;;;;;;5093528;28;20090;-82
2024/01/16 11:24:13;;;;;;;4.95;1.10;;;;;;;;;;5077585;28;20143;-83
2024/01/16 11:26:43;;;;;;;1.60;0.93;;;;;;;;;;5077516;28;20479;-81
2024/01/16 11:29:30;;;;;;;5.03;1.00;;;;;;;;;;5092942;28;20043;-81
2024/01/16 11:32:03;;;;;;;3.25;0.70;;;;;;;;;;5090138;28;20402;-80
2024/01/16 11:34:55;;;;;;;3.40;0.60;;;;;;;;;;5076556;28;20056;-81
2024/01/16 11:37:29;;;;;;;0.90;0.40;;;;;;;;;;5076344;28;20162;-80
2024/01/16 11:40:24;;;;;;;3.92;0.70;;;;;;;;;;5093127;28;20051;-79
2024/01/16 11:42:55;;;;;;;2.90;0.60;;;;;;;;;;5087007;28;20060;-80
2024/01/16 11:45:30;;;;;;;0.60;0.40;;;;;;;;;;5099682;28;20044;-80
2024/01/16 11:48:17;;;;;;;0.73;0.63;;;;;;;;;;5101702;28;20418;-82
2024/01/16 11:50:48;;;;;;;0.73;0.40;;;;;;;;;;5102177;28;20371;-80
2024/01/16 11:53:33;;;;;;;0.98;0.65;;;;;;;;;;5101543;28;20044;-80
2024/01/16 11:56:13;;;;;;;;;;;;;;;;;;5095386;28;20051;-80
2024/01/16 11:59:09;;;;;;;1.95;0.43;;;;;;;;;;5075855;28;19920;-80
2024/01/16 12:01:43;;;;;;;3.03;0.50;;;;;;;;;;5094485;28;20399;-80
2024/01/16 12:04:18;;;;;;;1.08;0.80;;;;;;;;;;5094313;28;20041;-79
2024/01/16 12:06:58;;;;;;;1.38;0.50;;;;;;;;;;5093822;28;20498;-79
2024/01/16 12:09:29;;;;;;;1.77;0.68;;;;;;;;;;5094120;28;20471;-77
2024/01/16 12:12:03;;;;;;;1.83;0.70;;;;;;;;;;5094413;28;20059;-77
2024/01/16 12:14:33;;;;;;;1.17;0.40;;;;;;;;;;5094293;28;20394;-80
2024/01/16 12:17:12;;;;;;;2.05;0.80;;;;;;;;;;5093845;28;20062;-83
2024/01/16 12:19:43;;;;;;;0.82;0.52;;;;;;;;;;5072093;28;20066;-79
2024/01/16 12:22:18;;;;;;;3.00;0.60;;;;;;;;;;5090817;28;20584;-78
2024/01/16 12:24:48;;;;;;;1.10;0.60;;;;;;;;;;5074051;28;20055;-78
2024/01/16 12:27:18;;;;;;;3.45;0.52;;;;;;;;;;5074665;28;20044;-78
2024/01/16 12:29:51;;;;;;;3.17;0.50;;;;;;;;;;5070875;28;20058;-78
2024/01/16 12:32:22;;;;;;;0.65;0.45;;;;;;;;;;5093885;28;20052;-79
2024/01/16 12:34:53;;;;;;;1.27;0.70;;;;;;;;;;5092674;28;20044;-78
2024/01/16 12:37:23;;;;;;;0.75;0.50;;;;;;;;;;5092733;28;20036;-78
2024/01/16 12:39:53;;;;;;;3.35;0.57;;;;;;;;;;5092482;28;20036;-79
2024/01/16 12:42:24;;;;;;;1.58;0.50;;;;;;;;;;5057396;28;20048;-79
2024/01/16 12:44:56;;;;;;;2.88;0.93;;;;;;;;;;5075184;28;20048;-79
2024/01/16 12:47:26;;;;;;;2.90;0.52;;;;;;;;;;5092329;28;20047;-79
2024/01/16 12:49:56;;;;;;;1.10;0.52;;;;;;;;;;5092649;28;20382;-79
2024/01/16 12:52:27;;;;;;;0.68;0.40;;;;;;;;;;5090541;28;20459;-81
2024/01/16 12:55:01;;;;;;;0.85;0.55;;;;;;;;;;5073980;28;20048;-78
2024/01/16 12:57:31;;;;;;;1.23;0.40;;;;;;;;;;5074413;28;20052;-79
2024/01/16 13:00:04;;;;;;;4.00;0.50;;;;;;;;;;5074096;28;20044;-79
2024/01/16 13:02:35;;;;;;;2.50;0.40;;;;;;;;;;5092881;28;20048;-77
2024/01/16 13:05:07;;;;;;;1.58;0.40;;;;;;;;;;5093321;28;20040;-80
2024/01/16 13:07:38;;;;;;;1.70;0.75;;;;;;;;;;5093323;28;20497;-79
2024/01/16 13:10:18;;;;;;;2.25;0.85;;;;;;;;;;5058089;28;20074;-78
2024/01/16 13:12:51;;;;;;;1.42;0.70;;;;;;;;;;5091099;28;20067;-80
2024/01/16 13:15:21;;;;;;;0.82;0.52;;;;;;;;;;5093107;28;20044;-78
2024/01/16 13:17:51;;;;;;;3.00;0.57;;;;;;;;;;5093655;28;20048;-78
2024/01/16 13:20:21;;;;;;;2.28;0.52;;;;;;;;;;5073927;28;20052;-81
2024/01/16 13:22:51;;;;;;;0.43;0.30;;;;;;;;;;5091649;28;20066;-81
2024/01/16 13:25:21;;;;;;;1.63;0.82;;;;;;;;;;5069829;28;20040;-78
2024/01/16 13:27:51;;;;;;;0.43;0.32;;;;;;;;;;5086741;28;20414;-80
2024/01/16 13:30:21;;;;;;;3.35;0.60;;;;;;;;;;5098313;28;20044;-80
2024/01/16 13:32:55;;;;;;;2.10;0.65;;;;;;;;;;5098589;28;20051;-80
2024/01/16 13:35:26;;;;;;;3.17;0.68;;;;;;;;;;5101286;28;20051;-79
2024/01/16 13:37:57;;;;;;;2.35;0.55;;;;;;;;;;5107269;28;20062;-79
2024/01/16 13:40:26;;;;;;;0.57;0.40;;;;;;;;;;5099234;28;20040;-80
2024/01/16 13:42:56;;;;;;;1.48;0.75;;;;;;;;;;5103409;28;20529;-82
2024/01/16 13:45:27;;;;;;;2.80;0.43;;;;;;;;;;5106419;28;20048;-81
2024/01/16 13:47:58;;;;;;;;;;;;;;;;;;5094278;28;20055;-80
2024/01/16 13:50:29;;;;;;;0.60;0.43;;;;;;;;;;5106144;28;19920;-82
2024/01/16 13:53:01;;;;;;;2.70;0.60;;;;;;;;;;5107259;28;20409;-82
2024/01/16 13:55:32;;;;;;;1.23;0.50;;;;;;;;;;5094577;28;20402;-82
2024/01/16 13:58:02;;;;;;;1.67;0.60;;;;;;;;;;5076905;28;20414;-82
2024/01/16 14:00:32;;;;;;;1.98;0.85;;;;;;;;;;5094436;28;20059;-82
2024/01/16 14:03:05;;;;;;;2.30;0.50;;;;;;;;;;5076151;28;20048;-82
2024/01/16 14:05:36;;;;;;;1.15;0.52;;;;;;;;;;5094566;28;20044;-81
2024/01/16 14:08:08;;;;;;;1.30;0.43;;;;;;;;;;5094520;28;20055;-81
2024/01/16 14:10:38;;;;;;;2.92;0.52;;;;;;;;;;5075662;28;20044;-82
2024/01/16 14:13:08;;;;;;;3.15;0.50;;;;;;;;;;5059953;28;20052;-82
2024/01/16 14:15:39;;;;;;;6.47;1.30;;;;;;;;;;5076025;28;20486;-81
2024/01/16 14:18:09;;;;;;;3.05;0.32;;;;;;;;;;5094759;28;20052;-81
2024/01/16 14:20:39;;;;;;;0.57;0.43;;;;;;;;;;5094486;28;20422;-82
2024/01/16 14:23:09;;;;;;;1.40;0.40;;;;;;;;;;5100306;28;20063;-83
2024/01/16 14:25:39;;;;;;;1.30;0.52;;;;;;;;;;5114630;28;20043;-82
2024/01/16 14:28:11;;;;;;;0.93;0.45;;;;;;;;;;5114954;28;20044;-82
2024/01/16 14:30:51;;;;;;;1.40;0.50;;;;;;;;;;5114473;28;20374;-83
2024/01/16 14:33:21;;;;;;;3.25;0.43;;;;;;;;;;5114716;28;20513;-82
2024/01/16 14:35:51;;;;;;;1.52;0.35;;;;;;;;;;5114410;28;20074;-83
2024/01/16 14:38:23;;;;;;;1.05;0.40;;;;;;;;;;5114710;28;20493;-82
2024/01/16 14:40:55;;;;;;;0.82;0.43;;;;;;;;;;5068756;28;20055;-82
2024/01/16 14:43:26;;;;;;;10.40;0.60;;;;;;;;;;5073831;28;20048;-82
2024/01/16 14:45:58;;;;;;;0.73;0.45;;;;;;;;;;5071550;28;20422;-81
2024/01/16 14:48:28;;;;;;;0.50;0.50;;;;;;;;;;5072303;28;20071;-82
2024/01/16 14:50:58;;;;;;;1.63;0.32;;;;;;;;;;5073370;28;20063;-80
2024/01/16 14:53:29;;;;;;;0.70;0.50;;;;;;;;;;5090814;28;20044;-81
2024/01/16 14:56:01;;;;;;;2.00;0.35;;;;;;;;;;5114008;28;20051;-79
2024/01/16 14:58:32;;;;;;;3.55;0.65;;;;;;;;;;5112633;28;20047;-81
2024/01/16 15:01:02;;;;;;;2.65;0.43;;;;;;;;;;5110650;28;20067;-81
2024/01/16 15:03:32;;;;;;;1.58;1.25;;;;;;;;;;5083306;28;20485;-83
2024/01/16 15:06:04;;;;;;;2.97;0.43;;;;;;;;;;5116348;28;20070;-80
2024/01/16 15:08:35;;;;;;;1.65;0.43;;;;;;;;;;5116585;28;20054;-83